Trelew/Rawson, Argentina
Current Conditions -  °F | °C
As of 1:00 PM on Wednesday 26 Nov 2014 (Local Time) from SAVC Reporting Station
Broken Clouds Broken Clouds  
Wind Chill: 68°   Ceiling: 20000
Heat Index: 68°   Visibility: 6mi
Dew Point: 34°   Wind: 9mph
Humidity: 28%   Direction: 140°SE
Pressure: 29.91"   Gusts: NA
Location:  43.2°S, 65.27°W
Report Text: SAVC 261600Z 14008KT 9999 FEW040 BKN20020/01 Q1013
Loading
Personal Weather Stations






























Interactive Weather Map New forecast layout! Learn more

10-Day Weather Forecast

Advertisements
Track Severe Weather on mobile